KLNA

Details ICAO KLNA (LNA)
Name Palm Beach Co Park
Region United States
Timezone America/New_York (UTC-5.0)
Plans Departing 8
Arriving 5
Stats Elevation 14 ft / 4 m (AMSL)
Location 26.593038° -80.085088°
Runways 3
Magnetic Variation 6.888° W
Sunrise 2017-12-18 12:04:18 UTC / 2017-12-18 07:04:18 Local
Sunset 2017-12-18 22:32:31 UTC / 2017-12-18 17:32:31 Local
Advertisement - Login to hide

Runways

ID Width Length Bearing (true) Bearing (mag) Surface Threshold Offset Overrun Length
03 75 ft / 23 m 3,263 ft / 995 m 31.83° 38.72° Asphalt 0 ft / 0 m 0 ft / 0 m
09 75 ft / 23 m 3,484 ft / 1,062 m 91.97° 98.86° Asphalt 0 ft / 0 m 0 ft / 0 m
15 100 ft / 30 m 3,431 ft / 1,046 m 152.10° 158.99° Asphalt 0 ft / 0 m 0 ft / 0 m
21 75 ft / 23 m 3,263 ft / 995 m 211.83° 218.72° Asphalt 0 ft / 0 m 0 ft / 0 m
27 75 ft / 23 m 3,484 ft / 1,062 m 271.97° 278.86° Asphalt 0 ft / 0 m 0 ft / 0 m
33 100 ft / 30 m 3,431 ft / 1,046 m 332.11° 339.00° Asphalt 0 ft / 0 m 0 ft / 0 m

Map

Weather


0- 5 10 15 20 25 30 35+ Temperature / ° C

Clouds and Precipitation
Forecast for 2017-12-18 12:00 UTC. Updated 2 hours ago

Ground ~20,000 ft ~40,000 ft Winds

METAR

KLNA 180835Z AUTO 00000KT 4SM BR SCT060 19/19 A3021 RMK AO2 T01860186

TAF

Not found

Frequencies

Unicom 122.70 MHz CTAF/UNICOM
Approach 127.35 MHz APP/DEP
Warning: Do not use this data for real-world aviation or navigation. No guarantee of current accuracy is given.